TimeEST,TemperatureF,Dew PointF,Humidity,Sea Level PressureIn,VisibilityMPH,Wind Direction,Wind SpeedMPH,Gust SpeedMPH,PrecipitationIn,Events,Conditions,WindDirDegrees,DateUTC
12:53 AM,42.1,30.9,65,30.04,10.0,WNW,9.2,16.1,N/A,,Mostly Cloudy,290,2013-02-06 05:53:00
1:53 AM,39.0,30.0,70,30.06,10.0,WNW,6.9,-,N/A,,Mostly Cloudy,290,2013-02-06 06:53:00
2:21 AM,37.4,30.2,75,30.06,10.0,WNW,3.5,-,N/A,,Scattered Clouds,290,2013-02-06 07:21:00
2:53 AM,37.9,28.9,70,30.08,10.0,WNW,3.5,-,N/A,,Clear,290,2013-02-06 07:53:00
3:53 AM,36.0,28.9,76,30.09,10.0,Calm,Calm,-,N/A,,Clear,0,2013-02-06 08:53:00
4:53 AM,35.1,28.9,78,30.11,10.0,West,3.5,-,N/A,,Clear,260,2013-02-06 09:53:00
5:53 AM,36.0,28.9,76,30.13,10.0,WNW,3.5,-,N/A,,Clear,300,2013-02-06 10:53:00
6:53 AM,32.0,27.0,82,30.15,8.0,Calm,Calm,-,N/A,,Clear,0,2013-02-06 11:53:00
7:53 AM,32.0,28.0,85,30.18,7.0,Calm,Calm,-,N/A,,Clear,0,2013-02-06 12:53:00
8:12 AM,32.0,28.4,87,30.17,7.0,Calm,Calm,-,N/A,,Mostly Cloudy,0,2013-02-06 13:12:00
8:53 AM,36.0,30.9,82,30.19,8.0,Calm,Calm,-,N/A,,Overcast,0,2013-02-06 13:53:00
9:53 AM,37.0,30.9,79,30.22,9.0,Calm,Calm,-,N/A,,Overcast,0,2013-02-06 14:53:00
10:53 AM,39.0,28.9,67,30.22,10.0,Calm,Calm,-,N/A,,Overcast,0,2013-02-06 15:53:00
11:53 AM,39.9,28.9,65,30.24,10.0,NW,4.6,-,N/A,,Mostly Cloudy,310,2013-02-06 16:53:00
12:01 PM,41.0,30.2,65,30.22,10.0,Calm,Calm,-,N/A,,Scattered Clouds,0,2013-02-06 17:01:00
12:53 PM,44.1,28.9,55,30.21,10.0,Variable,3.5,-,N/A,,Partly Cloudy,0,2013-02-06 17:53:00
1:53 PM,46.0,30.0,54,30.20,10.0,Calm,Calm,-,N/A,,Clear,0,2013-02-06 18:53:00
2:53 PM,48.9,28.9,46,30.19,10.0,Calm,Calm,-,N/A,,Clear,0,2013-02-06 19:53:00
3:53 PM,50.0,26.1,39,30.19,10.0,WSW,4.6,-,N/A,,Clear,240,2013-02-06 20:53:00
4:53 PM,48.0,26.1,42,30.20,10.0,Variable,3.5,-,N/A,,Clear,0,2013-02-06 21:53:00
5:53 PM,45.0,26.1,48,30.21,10.0,Calm,Calm,-,N/A,,Clear,0,2013-02-06 22:53:00
6:53 PM,43.0,26.1,51,30.20,10.0,NE,4.6,-,N/A,,Clear,40,2013-02-06 23:53:00
7:53 PM,41.0,27.0,57,30.20,10.0,NE,4.6,-,N/A,,Clear,50,2013-02-07 00:53:00
8:53 PM,41.0,27.0,57,30.20,10.0,NE,4.6,-,N/A,,Clear,50,2013-02-07 01:53:00
9:53 PM,39.0,27.0,62,30.21,10.0,Variable,4.6,-,N/A,,Clear,0,2013-02-07 02:53:00
10:53 PM,39.0,27.0,62,30.23,10.0,NE,3.5,-,N/A,,Clear,50,2013-02-07 03:53:00
11:53 PM,37.9,27.0,65,30.19,10.0,NE,3.5,-,N/A,,Clear,40,2013-02-07 04:53:00